Time,TemperatureF,DewpointF,PressureIn,WindDirection,WindDirectionDegrees,WindSpeedMPH,WindSpeedGustMPH,Humidity,HourlyPrecipIn,Conditions,Clouds,dailyrainin,SoftwareType,DateUTC
2013-06-05 00:00:00,68.1,63.1,30.00,SE,142,0.0,3.0,84,0.00,,,0.00,VWS V14.01,2013-06-05 05:00:00,
2013-06-05 00:01:00,68.1,63.1,30.00,SSE,158,0.0,0.0,84,0.00,,,0.00,VWS V14.01,2013-06-05 05:01:00,
2013-06-05 00:06:00,68.1,63.1,30.00,SSE,162,0.0,2.0,84,0.00,,,0.00,VWS V14.01,2013-06-05 05:06:00,
2013-06-05 00:11:00,68.0,63.0,30.00,ESE,120,0.0,2.0,84,0.00,,,0.00,VWS V14.01,2013-06-05 05:11:00,
2013-06-05 00:17:00,67.9,62.9,30.00,SSE,153,1.5,2.0,84,0.00,,,0.00,VWS V14.01,2013-06-05 05:17:00,
2013-06-05 00:22:00,67.9,62.9,29.99,ESE,119,1.5,2.0,84,0.00,,,0.00,VWS V14.01,2013-06-05 05:22:00,
2013-06-05 00:27:00,67.7,62.7,30.00,SE,125,0.0,2.0,84,0.00,,,0.00,VWS V14.01,2013-06-05 05:27:00,
2013-06-05 00:32:00,67.5,62.8,30.00,SE,135,0.0,2.0,85,0.00,,,0.00,VWS V14.01,2013-06-05 05:32:00,
2013-06-05 00:37:00,67.4,62.7,30.00,SE,131,1.5,3.0,85,0.00,,,0.00,VWS V14.01,2013-06-05 05:37:00,
2013-06-05 00:41:00,67.3,62.6,29.99,SE,142,0.0,3.0,85,0.00,,,0.00,VWS V14.01,2013-06-05 05:41:00,
2013-06-05 00:46:00,67.1,62.5,30.00,SSE,163,0.0,3.0,85,0.00,,,0.00,VWS V14.01,2013-06-05 05:46:00,
2013-06-05 00:52:00,67.0,62.7,30.00,ESE,110,0.0,3.0,86,0.00,,,0.00,VWS V14.01,2013-06-05 05:52:00,
2013-06-05 00:57:00,66.8,62.5,30.00,East,85,0.0,3.0,86,0.00,,,0.00,VWS V14.01,2013-06-05 05:57:00,
2013-06-05 01:00:00,68.1,63.1,30.00,SE,142,0.0,3.0,84,0.00,,,0.00,VWS V15.00,2013-06-05 06:00:00,
2013-06-05 01:02:00,66.7,62.4,30.00,SE,132,0.0,3.0,86,0.00,,,0.00,VWS V14.01,2013-06-05 06:02:00,
2013-06-05 01:07:00,66.6,62.3,29.99,SE,128,0.0,3.0,86,0.00,,,0.00,VWS V14.01,2013-06-05 06:07:00,
2013-06-05 01:12:00,66.6,62.3,30.00,ESE,102,0.0,3.0,86,0.00,,,0.00,VWS V14.01,2013-06-05 06:12:00,
2013-06-05 01:17:00,66.6,62.3,30.00,SE,132,0.0,3.0,86,0.00,,,0.00,VWS V14.01,2013-06-05 06:17:00,
2013-06-05 01:22:00,66.5,62.2,29.99,ESE,115,1.5,3.0,86,0.00,,,0.00,VWS V14.01,2013-06-05 06:22:00,
2013-06-05 01:27:00,66.5,62.2,29.99,SE,141,0.0,3.0,86,0.00,,,0.00,VWS V14.01,2013-06-05 06:27:00,
2013-06-05 01:32:00,66.4,62.1,29.99,South,174,0.0,3.0,86,0.00,,,0.00,VWS V14.01,2013-06-05 06:32:00,
2013-06-05 01:37:00,66.3,62.0,29.99,SSE,162,0.0,3.0,86,0.00,,,0.00,VWS V14.01,2013-06-05 06:37:00,
2013-06-05 01:42:00,66.3,62.0,29.99,SSE,158,0.0,3.0,86,0.00,,,0.00,VWS V14.01,2013-06-05 06:42:00,
2013-06-05 01:47:00,66.2,61.9,29.99,South,176,0.0,3.0,86,0.00,,,0.00,VWS V14.01,2013-06-05 06:47:00,
2013-06-05 01:52:00,66.1,62.1,30.00,SE,127,0.0,3.0,87,0.00,,,0.00,VWS V14.01,2013-06-05 06:52:00,
2013-06-05 01:57:00,65.9,61.9,29.99,SE,131,0.0,3.0,87,0.00,,,0.00,VWS V14.01,2013-06-05 06:57:00,
2013-06-05 02:00:00,65.9,61.9,30.00,SE,131,0.0,3.0,87,0.00,,,0.00,VWS V14.01,2013-06-05 07:00:00,
2013-06-05 02:02:00,65.8,61.8,30.00,SE,131,0.0,0.0,87,0.00,,,0.00,VWS V14.01,2013-06-05 07:02:00,
2013-06-05 02:07:00,65.4,61.4,29.99,SE,131,0.0,0.0,87,0.00,,,0.00,VWS V14.01,2013-06-05 07:07:00,
2013-06-05 02:12:00,65.0,61.4,29.99,SE,131,0.0,0.0,88,0.00,,,0.00,VWS V14.01,2013-06-05 07:12:00,
2013-06-05 02:17:00,64.8,61.5,29.99,SE,131,0.0,0.0,89,0.00,,,0.00,VWS V14.01,2013-06-05 07:17:00,
2013-06-05 02:22:00,64.7,61.4,29.99,SSE,150,0.0,0.0,89,0.00,,,0.00,VWS V14.01,2013-06-05 07:22:00,
2013-06-05 02:27:00,64.7,61.4,29.98,SSE,152,0.0,0.0,89,0.00,,,0.00,VWS V14.01,2013-06-05 07:27:00,
2013-06-05 02:32:00,64.6,61.3,29.99,SSE,163,0.0,0.0,89,0.00,,,0.00,VWS V14.01,2013-06-05 07:32:00,
2013-06-05 02:37:00,64.6,61.3,29.98,ESE,121,0.0,0.0,89,0.00,,,0.00,VWS V14.01,2013-06-05 07:37:00,
2013-06-05 02:42:00,64.6,61.3,29.98,SE,134,1.5,2.0,89,0.00,,,0.00,VWS V14.01,2013-06-05 07:42:00,
2013-06-05 02:47:00,64.6,61.3,29.98,East,97,0.0,2.0,89,0.00,,,0.00,VWS V14.01,2013-06-05 07:47:00,
2013-06-05 02:52:00,64.6,61.3,29.98,SE,134,1.5,2.0,89,0.00,,,0.00,VWS V14.01,2013-06-05 07:52:00,
2013-06-05 02:57:00,64.7,61.4,29.98,SSE,159,0.0,2.0,89,0.00,,,0.00,VWS V14.01,2013-06-05 07:57:00,
2013-06-05 03:02:00,64.7,61.4,29.97,SE,138,0.0,2.0,89,0.00,,,0.00,VWS V14.01,2013-06-05 08:02:00,
2013-06-05 03:07:00,64.8,61.2,29.97,ESE,110,1.5,2.0,88,0.00,,,0.00,VWS V14.01,2013-06-05 08:07:00,
2013-06-05 03:12:00,64.8,61.2,29.97,SSE,166,0.0,2.0,88,0.00,,,0.00,VWS V14.01,2013-06-05 08:12:00,
2013-06-05 03:17:00,64.8,61.2,29.96,South,169,0.0,2.0,88,0.00,,,0.00,VWS V14.01,2013-06-05 08:17:00,
2013-06-05 03:22:00,64.8,61.2,29.95,SSE,161,0.0,2.0,88,0.00,,,0.00,VWS V14.01,2013-06-05 08:22:00,
2013-06-05 03:27:00,64.8,61.2,29.95,SE,124,0.0,2.0,88,0.00,,,0.00,VWS V14.01,2013-06-05 08:27:00,
2013-06-05 03:32:00,64.8,60.8,29.96,SSW,203,0.0,2.0,87,0.00,,,0.00,VWS V14.01,2013-06-05 08:32:00,
2013-06-05 03:37:00,65.0,61.0,29.96,South,184,1.5,2.0,87,0.00,,,0.00,VWS V14.01,2013-06-05 08:37:00,
2013-06-05 03:42:00,65.0,61.0,29.96,SSE,159,1.5,2.0,87,0.00,,,0.00,VWS V14.01,2013-06-05 08:42:00,
2013-06-05 03:47:00,65.1,60.8,29.96,SSE,147,0.0,2.0,86,0.00,,,0.00,VWS V14.01,2013-06-05 08:47:00,
2013-06-05 03:52:00,65.1,61.1,29.96,SE,141,0.0,2.0,87,0.00,,,0.00,VWS V14.01,2013-06-05 08:52:00,
2013-06-05 03:57:00,65.0,61.0,29.95,SE,135,0.0,2.0,87,0.00,,,0.00,VWS V14.01,2013-06-05 08:57:00,
2013-06-05 04:00:00,65.0,61.0,29.95,SE,129,0.0,2.0,87,0.00,,,0.00,VWS V14.01,2013-06-05 09:00:00,
2013-06-05 04:02:00,64.9,60.9,29.95,SE,143,0.0,1.0,87,0.00,,,0.00,VWS V14.01,2013-06-05 09:02:00,
2013-06-05 04:07:00,64.8,60.8,29.95,SSE,153,0.0,1.0,87,0.00,,,0.00,VWS V14.01,2013-06-05 09:07:00,
2013-06-05 04:12:00,64.7,60.8,29.95,SSE,154,0.0,1.0,87,0.00,,,0.00,VWS V14.01,2013-06-05 09:12:00,
2013-06-05 04:17:00,64.6,61.0,29.95,SSE,153,0.0,1.0,88,0.00,,,0.00,VWS V14.01,2013-06-05 09:17:00,
2013-06-05 04:22:00,64.5,60.9,29.95,SE,139,0.0,1.0,88,0.00,,,0.00,VWS V14.01,2013-06-05 09:22:00,
2013-06-05 04:27:00,64.4,60.8,29.95,SE,138,0.0,1.0,88,0.00,,,0.00,VWS V14.01,2013-06-05 09:27:00,
2013-06-05 04:32:00,64.2,60.6,29.95,ESE,121,1.5,1.5,88,0.00,,,0.00,VWS V14.01,2013-06-05 09:32:00,
2013-06-05 04:37:00,64.1,60.8,29.95,ESE,120,0.0,1.0,89,0.00,,,0.00,VWS V14.01,2013-06-05 09:37:00,
2013-06-05 04:42:00,64.0,60.7,29.95,East,87,3.0,3.0,89,0.00,,,0.00,VWS V14.01,2013-06-05 09:42:00,
2013-06-05 04:47:00,63.9,60.6,29.95,ESE,110,0.0,2.0,89,0.00,,,0.00,VWS V14.01,2013-06-05 09:47:00,
2013-06-05 04:52:00,63.9,60.6,29.95,SE,124,0.0,2.0,89,0.00,,,0.00,VWS V14.01,2013-06-05 09:52:00,
2013-06-05 04:57:00,63.9,60.6,29.95,ESE,122,0.0,2.0,89,0.00,,,0.00,VWS V14.01,2013-06-05 09:57:00,
2013-06-05 05:02:00,63.7,60.4,29.95,SSE,160,0.0,2.0,89,0.00,,,0.00,VWS V14.01,2013-06-05 10:02:00,
2013-06-05 05:07:00,63.7,60.4,29.95,SSE,160,0.0,2.0,89,0.00,,,0.00,VWS V14.01,2013-06-05 10:07:00,
2013-06-05 05:12:00,63.7,60.4,29.95,SSE,162,0.0,2.0,89,0.00,,,0.00,VWS V14.01,2013-06-05 10:12:00,
2013-06-05 05:17:00,63.6,60.6,29.95,SE,129,1.5,2.0,90,0.00,,,0.00,VWS V14.01,2013-06-05 10:17:00,
2013-06-05 05:22:00,63.6,60.6,29.95,SE,129,0.0,2.0,90,0.00,,,0.00,VWS V14.01,2013-06-05 10:22:00,
2013-06-05 05:27:00,63.7,60.4,29.95,ESE,110,0.0,2.0,89,0.00,,,0.00,VWS V14.01,2013-06-05 10:27:00,
2013-06-05 05:32:00,63.7,60.4,29.95,SSE,147,0.0,2.0,89,0.00,,,0.00,VWS V14.01,2013-06-05 10:32:00,
2013-06-05 05:37:00,63.7,60.4,29.95,SE,133,0.0,2.0,89,0.00,,,0.00,VWS V14.01,2013-06-05 10:37:00,
2013-06-05 05:42:00,63.7,60.7,29.95,SSE,160,0.0,2.0,90,0.00,,,0.00,VWS V14.01,2013-06-05 10:42:00,
2013-06-05 05:47:00,63.7,60.7,29.95,ESE,120,1.5,2.0,90,0.00,,,0.00,VWS V14.01,2013-06-05 10:47:00,
2013-06-05 05:52:00,63.6,60.6,29.95,ESE,122,0.0,2.0,90,0.00,,,0.00,VWS V14.01,2013-06-05 10:52:00,
2013-06-05 05:57:00,63.6,60.6,29.95,ESE,122,0.0,2.0,90,0.00,,,0.00,VWS V14.01,2013-06-05 10:57:00,
2013-06-05 06:00:00,63.6,60.6,29.95,SE,124,0.0,2.0,90,0.00,,,0.00,VWS V14.01,2013-06-05 11:00:00,
2013-06-05 06:02:00,63.5,60.5,29.95,SSE,148,0.0,1.0,90,0.00,,,0.00,VWS V14.01,2013-06-05 11:02:00,
2013-06-05 06:07:00,63.6,60.6,29.95,SSE,148,0.0,1.0,90,0.00,,,0.00,VWS V14.01,2013-06-05 11:07:00,
2013-06-05 06:12:00,63.6,60.6,29.96,ESE,121,0.0,2.0,90,0.00,,,0.00,VWS V14.01,2013-06-05 11:12:00,
2013-06-05 06:17:00,63.7,60.7,29.97,SSE,158,1.5,2.0,90,0.00,,,0.00,VWS V14.01,2013-06-05 11:17:00,
2013-06-05 06:22:00,63.8,60.8,29.97,SSE,156,0.0,2.0,90,0.00,,,0.00,VWS V14.01,2013-06-05 11:22:00,
2013-06-05 06:27:00,63.9,60.9,29.97,ESE,110,0.0,2.0,90,0.00,,,0.00,VWS V14.01,2013-06-05 11:27:00,
2013-06-05 06:32:00,64.0,61.0,29.97,ESE,110,0.0,2.0,90,0.00,,,0.00,VWS V14.01,2013-06-05 11:32:00,
2013-06-05 06:37:00,64.0,61.0,29.97,ESE,122,0.0,2.0,90,0.00,,,0.00,VWS V14.01,2013-06-05 11:37:00,
2013-06-05 06:42:00,64.1,61.1,29.97,SE,136,0.0,2.0,90,0.00,,,0.00,VWS V14.01,2013-06-05 11:42:00,
2013-06-05 06:47:00,64.2,60.9,29.96,ESE,107,0.0,2.0,89,0.00,,,0.00,VWS V14.01,2013-06-05 11:47:00,
2013-06-05 06:52:00,64.3,61.0,29.96,SE,124,0.0,2.0,89,0.00,,,0.00,VWS V14.01,2013-06-05 11:52:00,
2013-06-05 06:57:00,64.4,61.1,29.97,SSE,165,1.5,2.0,89,0.00,,,0.00,VWS V14.01,2013-06-05 11:57:00,
2013-06-05 07:02:00,64.6,61.3,29.96,SE,129,4.5,4.5,89,0.00,,,0.00,VWS V14.01,2013-06-05 12:02:00,
2013-06-05 07:07:00,64.8,61.5,29.96,SSE,164,1.5,4.0,89,0.00,,,0.00,VWS V14.01,2013-06-05 12:07:00,
2013-06-05 07:12:00,64.9,61.3,29.96,SSE,162,0.0,4.0,88,0.00,,,0.00,VWS V14.01,2013-06-05 12:12:00,
2013-06-05 07:17:00,65.0,61.4,29.96,South,172,1.5,4.0,88,0.00,,,0.00,VWS V14.01,2013-06-05 12:17:00,
2013-06-05 07:22:00,65.2,61.6,29.96,SSE,165,0.0,4.0,88,0.00,,,0.00,VWS V14.01,2013-06-05 12:22:00,
2013-06-05 07:27:00,65.2,61.6,29.97,SSE,165,0.0,4.0,88,0.00,,,0.00,VWS V14.01,2013-06-05 12:27:00,
2013-06-05 07:32:00,65.2,61.6,29.97,SSE,165,0.0,4.0,88,0.00,,,0.00,VWS V14.01,2013-06-05 12:32:00,
2013-06-05 07:37:00,65.1,61.5,29.98,SSE,165,0.0,4.0,88,0.00,,,0.00,VWS V14.01,2013-06-05 12:37:00,
2013-06-05 07:42:00,65.0,61.7,29.98,SSE,165,0.0,4.0,89,0.00,,,0.00,VWS V14.01,2013-06-05 12:42:00,
2013-06-05 07:47:00,65.1,61.8,29.99,SSE,165,0.0,4.0,89,0.00,,,0.00,VWS V14.01,2013-06-05 12:47:00,
2013-06-05 07:52:00,65.1,61.8,29.99,SSE,165,0.0,4.0,89,0.00,,,0.00,VWS V14.01,2013-06-05 12:52:00,
2013-06-05 07:57:00,65.2,61.9,30.01,SSE,165,0.0,4.0,89,0.00,,,0.00,VWS V14.01,2013-06-05 12:57:00,
2013-06-05 08:00:00,65.2,62.2,30.04,WSW,252,0.0,5.0,90,0.00,,,0.00,VWS V14.01,2013-06-05 13:00:00,
2013-06-05 08:02:00,65.3,62.0,30.03,ESE,113,4.5,4.5,89,0.00,,,0.00,VWS V14.01,2013-06-05 13:02:00,
2013-06-05 08:07:00,65.3,62.0,30.04,North,356,0.0,3.0,89,0.00,,,0.00,VWS V14.01,2013-06-05 13:07:00,
2013-06-05 08:12:00,65.4,62.1,30.05,South,179,0.0,3.0,89,0.00,,,0.00,VWS V14.01,2013-06-05 13:12:00,
2013-06-05 08:17:00,65.4,62.7,30.06,NE,45,1.5,3.0,91,0.11,,,0.11,VWS V14.01,2013-06-05 13:17:00,
2013-06-05 08:22:00,64.8,62.7,30.06,East,84,1.5,6.0,93,0.21,,,0.21,VWS V14.01,2013-06-05 13:22:00,
2013-06-05 08:27:00,64.4,62.6,30.06,NNW,340,0.0,6.0,94,0.23,,,0.23,VWS V14.01,2013-06-05 13:27:00,
2013-06-05 08:32:00,64.2,62.7,30.06,NW,305,6.0,6.0,95,0.29,,,0.29,VWS V14.01,2013-06-05 13:32:00,
2013-06-05 08:37:00,64.1,62.9,30.06,WNW,297,0.0,6.0,96,0.36,,,0.36,VWS V14.01,2013-06-05 13:37:00,
2013-06-05 08:42:00,64.1,62.9,30.06,North,4,0.0,6.0,96,0.40,,,0.40,VWS V14.01,2013-06-05 13:42:00,
2013-06-05 08:47:00,64.0,62.8,30.07,SSE,158,1.5,6.0,96,0.41,,,0.41,VWS V14.01,2013-06-05 13:47:00,
2013-06-05 08:52:00,64.0,63.1,30.07,SSE,164,0.0,6.0,97,0.41,,,0.41,VWS V14.01,2013-06-05 13:52:00,
2013-06-05 08:57:00,64.0,63.1,30.06,North,9,0.0,6.0,97,0.42,,,0.42,VWS V14.01,2013-06-05 13:57:00,
2013-06-05 09:02:00,64.0,63.1,30.07,South,176,0.0,6.0,97,0.42,,,0.42,VWS V14.01,2013-06-05 14:02:00,
2013-06-05 09:07:00,64.0,63.1,30.07,SSE,161,0.0,6.0,97,0.46,,,0.46,VWS V14.01,2013-06-05 14:07:00,
2013-06-05 09:12:00,64.0,63.1,30.07,SSW,200,0.0,6.0,97,0.49,,,0.49,VWS V14.01,2013-06-05 14:12:00,
2013-06-05 09:17:00,64.1,63.2,30.06,SW,218,0.0,6.0,97,0.50,,,0.50,VWS V14.01,2013-06-05 14:17:00,
2013-06-05 09:22:00,64.1,63.2,30.06,South,174,0.0,6.0,97,0.50,,,0.50,VWS V14.01,2013-06-05 14:22:00,
2013-06-05 09:27:00,64.1,63.2,30.05,SSE,159,0.0,6.0,97,0.52,,,0.52,VWS V14.01,2013-06-05 14:27:00,
2013-06-05 09:32:00,64.2,63.3,30.04,South,170,3.0,6.0,97,0.53,,,0.53,VWS V14.01,2013-06-05 14:32:00,
2013-06-05 09:37:00,64.2,63.6,30.03,SSW,203,0.0,6.0,98,0.54,,,0.54,VWS V14.01,2013-06-05 14:37:00,
2013-06-05 09:42:00,64.2,63.6,30.02,SE,145,1.5,6.0,98,0.55,,,0.55,VWS V14.01,2013-06-05 14:42:00,
2013-06-05 09:47:00,64.2,63.6,30.02,SSW,200,1.5,6.0,98,0.55,,,0.55,VWS V14.01,2013-06-05 14:47:00,
2013-06-05 09:52:00,64.2,63.6,30.02,SSW,197,3.0,6.0,98,0.55,,,0.55,VWS V14.01,2013-06-05 14:52:00,
2013-06-05 09:57:00,64.2,63.6,30.03,SSE,166,4.5,6.0,98,0.57,,,0.57,VWS V14.01,2013-06-05 14:57:00,
2013-06-05 10:00:00,64.2,63.6,30.03,South,172,0.0,6.0,98,0.57,,,0.57,VWS V14.01,2013-06-05 15:00:00,
2013-06-05 10:02:00,64.2,63.6,30.03,SSE,148,0.0,3.0,98,0.02,,,0.59,VWS V14.01,2013-06-05 15:02:00,
2013-06-05 10:07:00,64.2,63.6,30.02,SE,142,3.0,3.0,98,0.05,,,0.62,VWS V14.01,2013-06-05 15:07:00,
2013-06-05 10:12:00,64.2,63.6,30.02,SE,144,3.0,3.0,98,0.07,,,0.64,VWS V14.01,2013-06-05 15:12:00,
2013-06-05 10:17:00,64.3,63.7,30.02,SSW,207,1.5,5.0,98,0.10,,,0.67,VWS V14.01,2013-06-05 15:17:00,
2013-06-05 10:22:00,64.3,63.7,30.01,East,84,1.5,5.0,98,0.11,,,0.68,VWS V14.01,2013-06-05 15:22:00,
2013-06-05 10:27:00,64.4,63.8,30.00,SE,129,1.5,5.0,98,0.11,,,0.68,VWS V14.01,2013-06-05 15:27:00,
2013-06-05 10:32:00,64.5,63.9,30.00,SSW,205,0.0,5.0,98,0.11,,,0.68,VWS V14.01,2013-06-05 15:32:00,
2013-06-05 10:37:00,64.6,64.0,29.99,SE,135,1.5,5.0,98,0.12,,,0.69,VWS V14.01,2013-06-05 15:37:00,
2013-06-05 10:42:00,64.9,64.0,29.99,ESE,121,4.5,7.0,97,0.12,,,0.69,VWS V14.01,2013-06-05 15:42:00,
2013-06-05 10:47:00,65.2,64.3,29.98,SE,134,1.5,7.0,97,0.12,,,0.69,VWS V14.01,2013-06-05 15:47:00,
2013-06-05 10:52:00,65.5,64.6,29.97,South,184,3.0,7.0,97,0.12,,,0.69,VWS V14.01,2013-06-05 15:52:00,
2013-06-05 10:57:00,65.7,64.8,29.97,SSW,203,1.5,7.0,97,0.12,,,0.69,VWS V14.01,2013-06-05 15:57:00,
2013-06-05 11:02:00,65.9,64.7,29.97,SSE,154,4.5,7.0,96,0.12,,,0.69,VWS V14.01,2013-06-05 16:02:00,
2013-06-05 11:07:00,66.4,64.9,29.96,SSE,162,3.0,7.0,95,0.12,,,0.69,VWS V14.01,2013-06-05 16:07:00,
2013-06-05 11:12:00,66.7,65.2,29.96,SW,217,0.0,7.0,95,0.12,,,0.69,VWS V14.01,2013-06-05 16:12:00,
2013-06-05 11:17:00,67.1,65.3,29.95,SSE,163,0.0,7.0,94,0.12,,,0.69,VWS V14.01,2013-06-05 16:17:00,
2013-06-05 11:22:00,67.6,65.5,29.95,SSE,166,4.5,7.0,93,0.12,,,0.69,VWS V14.01,2013-06-05 16:22:00,
2013-06-05 11:27:00,68.0,66.2,29.94,South,174,4.5,7.0,94,0.12,,,0.69,VWS V14.01,2013-06-05 16:27:00,
2013-06-05 11:32:00,68.4,66.0,29.94,South,189,3.0,7.0,92,0.12,,,0.69,VWS V14.01,2013-06-05 16:32:00,
2013-06-05 11:37:00,68.8,66.4,29.93,SSE,166,1.5,7.0,92,0.12,,,0.69,VWS V14.01,2013-06-05 16:37:00,
2013-06-05 11:42:00,69.3,65.9,29.91,South,172,3.0,7.0,89,0.12,,,0.69,VWS V14.01,2013-06-05 16:42:00,
2013-06-05 11:47:00,70.1,67.4,29.90,SSE,153,3.0,7.0,91,0.12,,,0.69,VWS V14.01,2013-06-05 16:47:00,
2013-06-05 11:52:00,70.7,67.9,29.91,SE,128,0.0,7.0,91,0.12,,,0.69,VWS V14.01,2013-06-05 16:52:00,
2013-06-05 11:57:00,71.4,67.7,29.91,South,169,3.0,7.0,88,0.12,,,0.69,VWS V14.01,2013-06-05 16:57:00,
2013-06-05 12:00:00,71.8,68.1,29.92,SE,145,0.0,7.0,88,0.12,,,0.69,VWS V14.01,2013-06-05 17:00:00,
2013-06-05 12:02:00,72.3,68.9,29.92,SSE,163,0.0,1.0,89,0.00,,,0.69,VWS V14.01,2013-06-05 17:02:00,
2013-06-05 12:07:00,73.3,69.2,29.93,South,174,0.0,1.0,87,0.00,,,0.69,VWS V14.01,2013-06-05 17:07:00,
2013-06-05 12:12:00,74.3,69.2,29.93,ENE,65,0.0,1.0,84,0.00,,,0.69,VWS V14.01,2013-06-05 17:12:00,
2013-06-05 12:17:00,75.1,68.5,29.94,SW,235,1.5,5.0,80,0.00,,,0.69,VWS V14.01,2013-06-05 17:17:00,
2013-06-05 12:22:00,75.8,69.6,29.94,SSW,203,0.0,5.0,81,0.00,,,0.69,VWS V14.01,2013-06-05 17:22:00,
2013-06-05 12:27:00,76.3,68.6,29.95,NE,52,4.5,5.0,77,0.00,,,0.69,VWS V14.01,2013-06-05 17:27:00,
2013-06-05 12:32:00,76.2,67.3,29.95,SW,215,0.0,6.0,74,0.00,,,0.69,VWS V14.01,2013-06-05 17:32:00,
2013-06-05 12:37:00,76.2,67.3,29.95,SSW,211,6.0,6.0,74,0.00,,,0.69,VWS V14.01,2013-06-05 17:37:00,
2013-06-05 12:42:00,76.3,68.2,29.95,West,259,1.5,6.0,76,0.00,,,0.69,VWS V14.01,2013-06-05 17:42:00,
2013-06-05 12:47:00,76.3,68.2,29.94,SSW,193,0.0,6.0,76,0.00,,,0.69,VWS V14.01,2013-06-05 17:47:00,
2013-06-05 12:52:00,76.7,68.9,29.94,SE,124,0.0,6.0,77,0.00,,,0.69,VWS V14.01,2013-06-05 17:52:00,
2013-06-05 12:57:00,77.3,69.2,29.94,South,190,7.5,7.5,76,0.00,,,0.69,VWS V14.01,2013-06-05 17:57:00,
2013-06-05 13:00:00,71.8,68.1,29.92,SE,145,0.0,7.0,88,0.12,,,0.69,VWS V15.00,2013-06-05 18:00:00,
2013-06-05 13:02:00,77.4,67.7,29.93,SSW,202,3.0,8.0,72,0.00,,,0.69,VWS V14.01,2013-06-05 18:02:00,
2013-06-05 13:07:00,77.4,68.1,29.93,SSW,198,1.5,8.0,73,0.00,,,0.69,VWS V14.01,2013-06-05 18:07:00,
2013-06-05 13:12:00,77.6,67.1,29.93,SSE,167,4.5,8.0,70,0.00,,,0.69,VWS V14.01,2013-06-05 18:12:00,
2013-06-05 13:17:00,77.7,67.1,29.93,SSW,204,0.0,8.0,70,0.00,,,0.69,VWS V14.01,2013-06-05 18:17:00,
2013-06-05 13:27:00,76.7,65.3,29.92,South,190,7.5,7.5,68,0.00,,,0.69,VWS V14.01,2013-06-05 18:27:00,
2013-06-05 13:32:00,76.6,65.3,29.92,South,184,0.0,5.0,68,0.00,,,0.69,VWS V14.01,2013-06-05 18:32:00,
2013-06-05 13:37:00,76.6,66.1,29.92,SW,224,1.5,5.0,70,0.00,,,0.69,VWS V14.01,2013-06-05 18:37:00,
2013-06-05 13:42:00,76.9,65.5,29.92,SE,146,1.5,5.0,68,0.00,,,0.69,VWS V14.01,2013-06-05 18:42:00,
2013-06-05 13:47:00,77.1,66.2,29.93,SSE,165,12.0,12.0,69,0.00,,,0.69,VWS V14.01,2013-06-05 18:47:00,
2013-06-05 13:52:00,77.2,66.2,29.93,South,169,1.5,8.0,69,0.00,,,0.69,VWS V14.01,2013-06-05 18:52:00,
2013-06-05 13:57:00,77.5,67.4,29.92,East,84,0.0,8.0,71,0.00,,,0.69,VWS V14.01,2013-06-05 18:57:00,
2013-06-05 14:00:00,77.8,68.5,29.92,SW,229,0.0,8.0,73,0.00,,,0.69,VWS V14.01,2013-06-05 19:00:00,
2013-06-05 14:02:00,77.9,66.9,29.92,ENE,75,0.0,2.0,69,0.00,,,0.69,VWS V14.01,2013-06-05 19:02:00,
2013-06-05 14:07:00,78.1,67.5,29.92,NNE,15,4.5,6.0,70,0.00,,,0.69,VWS V14.01,2013-06-05 19:07:00,
2013-06-05 14:12:00,78.0,67.0,29.92,West,278,0.0,6.0,69,0.00,,,0.69,VWS V14.01,2013-06-05 19:12:00,
2013-06-05 14:17:00,78.5,68.7,29.92,ESE,110,1.5,6.0,72,0.00,,,0.69,VWS V14.01,2013-06-05 19:17:00,
2013-06-05 14:22:00,78.9,67.9,29.91,West,278,1.5,6.0,69,0.00,,,0.69,VWS V14.01,2013-06-05 19:22:00,
2013-06-05 14:27:00,78.7,66.8,29.91,NNE,18,0.0,6.0,67,0.00,,,0.69,VWS V14.01,2013-06-05 19:27:00,
2013-06-05 14:32:00,78.7,67.3,29.91,WNW,284,0.0,6.0,68,0.00,,,0.69,VWS V14.01,2013-06-05 19:32:00,
2013-06-05 14:37:00,78.8,67.8,29.91,NNE,15,0.0,6.0,69,0.00,,,0.69,VWS V14.01,2013-06-05 19:37:00,
2013-06-05 14:42:00,79.1,68.5,29.91,NNW,340,1.5,6.0,70,0.00,,,0.69,VWS V14.01,2013-06-05 19:42:00,
2013-06-05 14:47:00,78.8,67.8,29.91,ESE,108,1.5,6.0,69,0.00,,,0.69,VWS V14.01,2013-06-05 19:47:00,
2013-06-05 14:52:00,78.8,68.2,29.91,WNW,297,0.0,6.0,70,0.00,,,0.69,VWS V14.01,2013-06-05 19:52:00,
2013-06-05 14:57:00,78.9,67.9,29.91,ENE,60,1.5,6.0,69,0.00,,,0.69,VWS V14.01,2013-06-05 19:57:00,
2013-06-05 15:00:00,77.8,68.5,29.92,SW,229,0.0,8.0,73,0.00,,,0.69,VWS V15.00,2013-06-05 20:00:00,
2013-06-05 15:02:00,78.7,67.7,29.91,NNW,335,0.0,6.0,69,0.00,,,0.69,VWS V14.01,2013-06-05 20:02:00,
2013-06-05 15:07:00,79.0,68.8,29.91,WSW,239,3.0,7.0,71,0.00,,,0.69,VWS V14.01,2013-06-05 20:07:00,
2013-06-05 15:12:00,78.9,68.3,29.91,WNW,291,1.5,7.0,70,0.00,,,0.69,VWS V14.01,2013-06-05 20:12:00,
2013-06-05 15:17:00,78.8,67.8,29.91,NNW,345,0.0,8.0,69,0.00,,,0.69,VWS V14.01,2013-06-05 20:17:00,
2013-06-05 15:22:00,79.1,68.9,29.92,ENE,58,0.0,8.0,71,0.00,,,0.69,VWS V14.01,2013-06-05 20:22:00,
2013-06-05 15:27:00,79.3,68.7,29.92,East,101,0.0,8.0,70,0.00,,,0.69,VWS V14.01,2013-06-05 20:27:00,
2013-06-05 15:32:00,79.3,68.7,29.92,NNE,23,6.0,8.0,70,0.00,,,0.69,VWS V14.01,2013-06-05 20:32:00,
2013-06-05 15:37:00,79.7,68.6,29.92,SW,229,1.5,8.0,69,0.00,,,0.69,VWS V14.01,2013-06-05 20:37:00,
2013-06-05 15:42:00,79.9,68.0,29.92,NE,47,6.0,8.0,67,0.00,,,0.69,VWS V14.01,2013-06-05 20:42:00,
2013-06-05 15:47:00,78.7,68.1,29.92,NNE,33,0.0,8.0,70,0.00,,,0.69,VWS V14.01,2013-06-05 20:47:00,
2013-06-05 15:52:00,78.4,67.4,29.92,NE,37,1.5,8.0,69,0.00,,,0.69,VWS V14.01,2013-06-05 20:52:00,
2013-06-05 15:57:00,78.1,68.3,29.92,NNE,18,6.0,8.0,72,0.00,,,0.69,VWS V14.01,2013-06-05 20:57:00,
2013-06-05 16:00:00,78.1,67.5,29.92,NNW,345,3.0,8.0,70,0.00,,,0.69,VWS V14.01,2013-06-05 21:00:00,
2013-06-05 16:02:00,78.2,69.2,29.92,NNE,33,1.5,2.0,74,0.00,,,0.69,VWS V14.01,2013-06-05 21:02:00,
2013-06-05 16:07:00,78.1,67.9,29.92,NE,37,1.5,5.0,71,0.00,,,0.69,VWS V14.01,2013-06-05 21:07:00,
2013-06-05 16:12:00,78.0,67.8,29.92,North,11,3.0,6.0,71,0.00,,,0.69,VWS V14.01,2013-06-05 21:12:00,
2013-06-05 16:17:00,78.1,67.1,29.92,West,277,4.5,10.0,69,0.00,,,0.69,VWS V14.01,2013-06-05 21:17:00,
2013-06-05 16:22:00,77.7,68.0,29.92,NW,322,3.0,10.0,72,0.00,,,0.69,VWS V14.01,2013-06-05 21:22:00,
2013-06-05 16:27:00,77.5,67.8,29.92,WNW,298,6.0,10.0,72,0.00,,,0.69,VWS V14.01,2013-06-05 21:27:00,
2013-06-05 16:32:00,77.6,69.1,29.92,SE,129,1.5,10.0,75,0.00,,,0.69,VWS V14.01,2013-06-05 21:32:00,
2013-06-05 16:37:00,77.6,69.1,29.92,SE,130,0.0,10.0,75,0.00,,,0.69,VWS V14.01,2013-06-05 21:37:00,
2013-06-05 16:42:00,77.6,67.9,29.92,NW,323,0.0,10.0,72,0.00,,,0.69,VWS V14.01,2013-06-05 21:42:00,
2013-06-05 16:47:00,77.9,68.2,29.92,NNE,33,1.5,10.0,72,0.00,,,0.69,VWS V14.01,2013-06-05 21:47:00,
2013-06-05 16:52:00,78.0,68.2,29.92,SW,225,0.0,10.0,72,0.00,,,0.69,VWS V14.01,2013-06-05 21:52:00,
2013-06-05 16:57:00,78.3,68.5,29.92,South,169,0.0,10.0,72,0.00,,,0.69,VWS V14.01,2013-06-05 21:57:00,
2013-06-05 17:00:00,78.1,67.5,29.92,NNW,345,3.0,8.0,70,0.00,,,0.69,VWS V15.00,2013-06-05 22:00:00,
2013-06-05 17:02:00,78.7,68.1,29.92,NNW,328,1.5,10.0,70,0.00,,,0.69,VWS V14.01,2013-06-05 22:02:00,
2013-06-05 17:07:00,78.7,68.1,29.92,NE,34,0.0,10.0,70,0.00,,,0.69,VWS V14.01,2013-06-05 22:07:00,
2013-06-05 17:12:00,78.5,67.5,29.92,WSW,243,0.0,10.0,69,0.00,,,0.69,VWS V14.01,2013-06-05 22:12:00,
2013-06-05 17:17:00,77.9,67.3,29.92,NNW,340,6.0,10.0,70,0.00,,,0.69,VWS V14.01,2013-06-05 22:17:00,
2013-06-05 17:22:00,77.4,67.7,29.92,NW,318,4.5,10.0,72,0.00,,,0.69,VWS V14.01,2013-06-05 22:22:00,
2013-06-05 17:27:00,77.1,67.8,29.93,NW,314,3.0,10.0,73,0.00,,,0.69,VWS V14.01,2013-06-05 22:27:00,
2013-06-05 17:32:00,77.1,67.8,29.93,East,87,1.5,10.0,73,0.00,,,0.69,VWS V14.01,2013-06-05 22:32:00,
2013-06-05 17:37:00,77.1,67.4,29.93,East,96,1.5,10.0,72,0.00,,,0.69,VWS V14.01,2013-06-05 22:37:00,
2013-06-05 17:42:00,77.0,67.3,29.93,NNW,345,1.5,10.0,72,0.00,,,0.69,VWS V14.01,2013-06-05 22:42:00,
2013-06-05 17:47:00,77.2,68.3,29.93,NW,325,4.5,10.0,74,0.00,,,0.69,VWS V14.01,2013-06-05 22:47:00,
2013-06-05 17:52:00,77.6,68.7,29.93,NW,320,3.0,10.0,74,0.00,,,0.69,VWS V14.01,2013-06-05 22:52:00,
2013-06-05 17:57:00,77.7,68.0,29.93,NW,316,0.0,10.0,72,0.00,,,0.69,VWS V14.01,2013-06-05 22:57:00,
2013-06-05 18:00:00,77.5,68.2,29.93,NW,326,7.5,10.0,73,0.00,,,0.69,VWS V14.01,2013-06-05 23:00:00,
2013-06-05 18:02:00,77.3,67.6,29.93,NW,315,4.5,5.0,72,0.00,,,0.69,VWS V14.01,2013-06-05 23:02:00,
2013-06-05 18:07:00,76.8,67.5,29.93,West,280,1.5,7.0,73,0.00,,,0.69,VWS V14.01,2013-06-05 23:07:00,
2013-06-05 18:12:00,77.0,68.1,29.93,WNW,288,4.5,7.0,74,0.00,,,0.69,VWS V14.01,2013-06-05 23:12:00,
2013-06-05 18:17:00,77.0,68.1,29.93,NNW,335,3.0,7.0,74,0.00,,,0.69,VWS V14.01,2013-06-05 23:17:00,
2013-06-05 18:22:00,76.9,68.0,29.93,East,86,1.5,7.0,74,0.00,,,0.69,VWS V14.01,2013-06-05 23:22:00,
2013-06-05 18:27:00,76.8,68.3,29.92,ENE,57,0.0,7.0,75,0.00,,,0.69,VWS V14.01,2013-06-05 23:27:00,
2013-06-05 18:32:00,76.7,67.8,29.92,NW,313,4.5,7.0,74,0.00,,,0.69,VWS V14.01,2013-06-05 23:32:00,
2013-06-05 18:37:00,76.4,67.5,29.92,NW,324,0.0,7.0,74,0.00,,,0.69,VWS V14.01,2013-06-05 23:37:00,
2013-06-05 18:42:00,76.2,67.7,29.92,NNW,343,1.5,7.0,75,0.00,,,0.69,VWS V14.01,2013-06-05 23:42:00,
2013-06-05 18:47:00,76.0,68.3,29.92,NNW,335,0.0,7.0,77,0.00,,,0.69,VWS V14.01,2013-06-05 23:47:00,
2013-06-05 18:52:00,75.9,67.8,29.92,NW,318,3.0,7.0,76,0.00,,,0.69,VWS V14.01,2013-06-05 23:52:00,
2013-06-05 18:57:00,75.9,68.2,29.92,NNW,335,7.5,7.5,77,0.00,,,0.69,VWS V14.01,2013-06-05 23:57:00,
2013-06-05 19:02:00,75.7,68.0,29.92,ENE,70,0.0,7.0,77,0.00,,,0.69,VWS V14.01,2013-06-06 00:02:00,
2013-06-05 19:07:00,75.4,67.7,29.92,NNW,347,1.5,7.0,77,0.00,,,0.69,VWS V14.01,2013-06-06 00:07:00,
2013-06-05 19:12:00,75.1,67.8,29.92,NW,314,3.0,7.0,78,0.00,,,0.69,VWS V14.01,2013-06-06 00:12:00,
2013-06-05 19:17:00,75.0,68.1,29.92,NNW,333,0.0,7.0,79,0.00,,,0.69,VWS V14.01,2013-06-06 00:17:00,
2013-06-05 19:22:00,74.9,67.9,29.92,NE,44,4.5,7.0,79,0.00,,,0.69,VWS V14.01,2013-06-06 00:22:00,
2013-06-05 19:27:00,75.0,68.1,29.92,NW,314,6.0,7.0,79,0.00,,,0.69,VWS V14.01,2013-06-06 00:27:00,
2013-06-05 19:32:00,75.1,67.8,29.92,NNE,20,3.0,7.0,78,0.00,,,0.69,VWS V14.01,2013-06-06 00:32:00,
2013-06-05 19:37:00,74.9,67.6,29.92,NNW,330,4.5,7.0,78,0.00,,,0.69,VWS V14.01,2013-06-06 00:37:00,
2013-06-05 19:42:00,74.7,67.8,29.92,North,9,6.0,7.0,79,0.00,,,0.69,VWS V14.01,2013-06-06 00:42:00,
2013-06-05 19:47:00,74.6,67.7,29.92,WNW,288,0.0,7.0,79,0.00,,,0.69,VWS V14.01,2013-06-06 00:47:00,
2013-06-05 19:52:00,74.3,67.4,29.92,NNE,18,0.0,7.0,79,0.00,,,0.69,VWS V14.01,2013-06-06 00:52:00,
2013-06-05 19:57:00,74.1,67.5,29.93,NW,325,0.0,7.0,80,0.00,,,0.69,VWS V14.01,2013-06-06 00:57:00,
2013-06-05 20:00:00,74.0,67.4,29.92,SSE,162,4.5,8.0,80,0.00,,,0.69,VWS V14.01,2013-06-06 01:00:00,
2013-06-05 20:02:00,73.9,67.0,29.92,WNW,298,4.5,5.0,79,0.00,,,0.69,VWS V14.01,2013-06-06 01:02:00,
2013-06-05 20:07:00,73.7,67.2,29.92,NNW,335,0.0,5.0,80,0.00,,,0.69,VWS V14.01,2013-06-06 01:07:00,
2013-06-05 20:12:00,73.5,67.0,29.93,NW,307,3.0,5.0,80,0.00,,,0.69,VWS V14.01,2013-06-06 01:12:00,
2013-06-05 20:17:00,73.3,66.8,29.93,NNE,33,1.5,5.0,80,0.00,,,0.69,VWS V14.01,2013-06-06 01:17:00,
2013-06-05 20:22:00,73.0,66.5,29.93,North,358,1.5,5.0,80,0.00,,,0.69,VWS V14.01,2013-06-06 01:22:00,
2013-06-05 20:27:00,72.7,66.5,29.93,NW,315,3.0,5.0,81,0.00,,,0.69,VWS V14.01,2013-06-06 01:27:00,
2013-06-05 20:32:00,72.5,66.3,29.93,NW,311,1.5,5.0,81,0.00,,,0.69,VWS V14.01,2013-06-06 01:32:00,
2013-06-05 20:37:00,72.2,66.4,29.93,North,11,0.0,5.0,82,0.00,,,0.69,VWS V14.01,2013-06-06 01:37:00,
2013-06-05 20:42:00,72.0,66.2,29.93,North,349,1.5,5.0,82,0.00,,,0.69,VWS V14.01,2013-06-06 01:42:00,
2013-06-05 20:47:00,71.8,66.0,29.93,WNW,302,1.5,5.0,82,0.00,,,0.69,VWS V14.01,2013-06-06 01:47:00,
2013-06-05 20:52:00,71.6,65.8,29.93,NNW,340,1.5,5.0,82,0.00,,,0.69,VWS V14.01,2013-06-06 01:52:00,
2013-06-05 20:57:00,71.5,65.7,29.93,NW,307,1.5,5.0,82,0.00,,,0.69,VWS V14.01,2013-06-06 01:57:00,
2013-06-05 21:02:00,71.3,65.5,29.93,NNW,336,3.0,5.0,82,0.00,,,0.69,VWS V14.01,2013-06-06 02:02:00,
2013-06-05 21:07:00,71.2,65.4,29.93,NNE,25,3.0,5.0,82,0.00,,,0.69,VWS V14.01,2013-06-06 02:07:00,
2013-06-05 21:12:00,71.1,65.7,29.93,NNE,21,3.0,7.0,83,0.00,,,0.69,VWS V14.01,2013-06-06 02:12:00,
2013-06-05 21:17:00,70.9,65.5,29.93,NNE,25,3.0,7.0,83,0.00,,,0.69,VWS V14.01,2013-06-06 02:17:00,
2013-06-05 21:22:00,70.7,65.6,29.93,NE,39,9.0,9.0,84,0.00,,,0.69,VWS V14.01,2013-06-06 02:22:00,
2013-06-05 21:27:00,70.6,65.5,29.93,NNE,14,3.0,7.0,84,0.00,,,0.69,VWS V14.01,2013-06-06 02:27:00,
2013-06-05 21:32:00,70.3,65.6,29.94,North,360,7.5,7.5,85,0.00,,,0.69,VWS V14.01,2013-06-06 02:32:00,
2013-06-05 21:37:00,70.2,65.5,29.94,NNE,16,3.0,7.0,85,0.00,,,0.69,VWS V14.01,2013-06-06 02:37:00,
2013-06-05 21:42:00,69.9,65.2,29.94,NNW,338,6.0,7.0,85,0.00,,,0.69,VWS V14.01,2013-06-06 02:42:00,
2013-06-05 21:47:00,69.8,65.4,29.94,NNW,335,3.0,7.0,86,0.00,,,0.69,VWS V14.01,2013-06-06 02:47:00,
2013-06-05 21:52:00,69.6,65.2,29.95,NE,34,3.0,7.0,86,0.00,,,0.69,VWS V14.01,2013-06-06 02:52:00,
2013-06-05 21:57:00,69.4,65.0,29.95,North,9,4.5,7.0,86,0.00,,,0.69,VWS V14.01,2013-06-06 02:57:00,
2013-06-05 22:00:00,69.3,64.9,29.95,North,356,4.5,7.0,86,0.00,,,0.69,VWS V14.01,2013-06-06 03:00:00,
2013-06-05 22:02:00,69.2,64.8,29.96,NNE,27,4.5,4.5,86,0.00,,,0.69,VWS V14.01,2013-06-06 03:02:00,
2013-06-05 22:07:00,69.0,65.0,29.96,North,9,6.0,7.0,87,0.00,,,0.69,VWS V14.01,2013-06-06 03:07:00,
2013-06-05 22:12:00,68.9,64.9,29.96,NNE,27,3.0,7.0,87,0.00,,,0.69,VWS V14.01,2013-06-06 03:12:00,
2013-06-05 22:17:00,68.6,64.6,29.96,NNE,19,6.0,7.0,87,0.00,,,0.69,VWS V14.01,2013-06-06 03:17:00,
2013-06-05 22:22:00,68.4,64.7,29.96,NNW,338,1.5,8.0,88,0.00,,,0.69,VWS V14.01,2013-06-06 03:22:00,
2013-06-05 22:27:00,68.2,64.5,29.96,NE,34,1.5,8.0,88,0.00,,,0.69,VWS V14.01,2013-06-06 03:27:00,
2013-06-05 22:32:00,68.0,64.6,29.96,NE,46,3.0,8.0,89,0.00,,,0.69,VWS V14.01,2013-06-06 03:32:00,
2013-06-05 23:00:00,69.3,64.9,29.95,North,356,4.5,7.0,86,0.00,,,0.69,VWS V15.00,2013-06-06 04:00:00,